sensor_id;sensor_type;location;lat;lon;timestamp;temperature;humidity
50013;DHT22;35901;48.694;9.476;2023-08-30T00:00:19;11.70;99.90
50013;DHT22;35901;48.694;9.476;2023-08-30T00:02:47;11.70;99.90
50013;DHT22;35901;48.694;9.476;2023-08-30T00:05:13;11.70;99.90
50013;DHT22;35901;48.694;9.476;2023-08-30T00:07:39;11.70;99.90
50013;DHT22;35901;48.694;9.476;2023-08-30T00:10:06;11.70;99.90
50013;DHT22;35901;48.694;9.476;2023-08-30T00:12:33;11.70;99.90
50013;DHT22;35901;48.694;9.476;2023-08-30T00:14:59;11.70;99.90
50013;DHT22;35901;48.694;9.476;2023-08-30T00:17:24;11.60;99.90
50013;DHT22;35901;48.694;9.476;2023-08-30T00:19:50;11.60;99.90
50013;DHT22;35901;48.694;9.476;2023-08-30T00:22:18;11.70;99.90
50013;DHT22;35901;48.694;9.476;2023-08-30T00:24:44;11.70;99.90
50013;DHT22;35901;48.694;9.476;2023-08-30T00:27:10;11.70;99.90
50013;DHT22;35901;48.694;9.476;2023-08-30T00:29:37;11.60;99.90
50013;DHT22;35901;48.694;9.476;2023-08-30T00:32:03;11.60;99.90
50013;DHT22;35901;48.694;9.476;2023-08-30T00:34:29;11.60;99.90
50013;DHT22;35901;48.694;9.476;2023-08-30T00:36:54;11.60;99.90
50013;DHT22;35901;48.694;9.476;2023-08-30T00:39:20;11.60;99.90
50013;DHT22;35901;48.694;9.476;2023-08-30T00:41:46;11.50;99.90
50013;DHT22;35901;48.694;9.476;2023-08-30T00:44:12;11.50;99.90
50013;DHT22;35901;48.694;9.476;2023-08-30T00:46:37;11.50;99.90
50013;DHT22;35901;48.694;9.476;2023-08-30T00:49:05;11.50;99.90
50013;DHT22;35901;48.694;9.476;2023-08-30T00:51:32;11.50;99.90
50013;DHT22;35901;48.694;9.476;2023-08-30T00:53:59;11.50;99.90
50013;DHT22;35901;48.694;9.476;2023-08-30T00:56:27;11.40;99.90
50013;DHT22;35901;48.694;9.476;2023-08-30T00:58:53;11.40;99.90
50013;DHT22;35901;48.694;9.476;2023-08-30T01:01:19;11.40;99.90
50013;DHT22;35901;48.694;9.476;2023-08-30T01:03:45;11.40;99.90
50013;DHT22;35901;48.694;9.476;2023-08-30T01:06:11;11.40;99.90
50013;DHT22;35901;48.694;9.476;2023-08-30T01:08:37;11.40;99.90
50013;DHT22;35901;48.694;9.476;2023-08-30T01:13:42;11.20;99.90
50013;DHT22;35901;48.694;9.476;2023-08-30T01:16:10;11.20;99.90
50013;DHT22;35901;48.694;9.476;2023-08-30T01:18:38;11.10;99.90
50013;DHT22;35901;48.694;9.476;2023-08-30T01:21:09;11.10;99.90
50013;DHT22;35901;48.694;9.476;2023-08-30T01:23:42;10.90;99.90
50013;DHT22;35901;48.694;9.476;2023-08-30T01:29:03;10.60;99.90
50013;DHT22;35901;48.694;9.476;2023-08-30T01:31:32;10.60;99.90
50013;DHT22;35901;48.694;9.476;2023-08-30T01:34:02;10.60;99.90
50013;DHT22;35901;48.694;9.476;2023-08-30T01:36:30;10.60;99.90
50013;DHT22;35901;48.694;9.476;2023-08-30T01:38:58;10.50;99.90
50013;DHT22;35901;48.694;9.476;2023-08-30T01:41:26;10.50;99.90
50013;DHT22;35901;48.694;9.476;2023-08-30T01:43:53;10.60;99.90
50013;DHT22;35901;48.694;9.476;2023-08-30T01:46:21;10.60;99.90
50013;DHT22;35901;48.694;9.476;2023-08-30T01:48:48;10.50;99.90
50013;DHT22;35901;48.694;9.476;2023-08-30T01:51:16;10.50;99.90
50013;DHT22;35901;48.694;9.476;2023-08-30T01:53:44;10.50;99.90
50013;DHT22;35901;48.694;9.476;2023-08-30T01:56:10;10.50;99.90
50013;DHT22;35901;48.694;9.476;2023-08-30T01:58:36;10.40;99.90
50013;DHT22;35901;48.694;9.476;2023-08-30T02:01:02;10.30;99.90
50013;DHT22;35901;48.694;9.476;2023-08-30T02:03:28;10.30;99.90
50013;DHT22;35901;48.694;9.476;2023-08-30T02:06:10;10.30;99.90
50013;DHT22;35901;48.694;9.476;2023-08-30T02:09:02;10.40;99.90
50013;DHT22;35901;48.694;9.476;2023-08-30T02:11:34;10.40;99.90
50013;DHT22;35901;48.694;9.476;2023-08-30T02:14:01;10.50;99.90
50013;DHT22;35901;48.694;9.476;2023-08-30T02:16:31;10.50;99.90
50013;DHT22;35901;48.694;9.476;2023-08-30T02:18:57;10.50;99.90
50013;DHT22;35901;48.694;9.476;2023-08-30T02:21:23;10.50;99.90
50013;DHT22;35901;48.694;9.476;2023-08-30T02:23:50;10.50;99.90
50013;DHT22;35901;48.694;9.476;2023-08-30T02:26:19;10.60;99.90
50013;DHT22;35901;48.694;9.476;2023-08-30T02:28:46;10.50;99.90
50013;DHT22;35901;48.694;9.476;2023-08-30T02:31:12;10.50;99.90
50013;DHT22;35901;48.694;9.476;2023-08-30T02:33:37;10.50;99.90
50013;DHT22;35901;48.694;9.476;2023-08-30T02:36:04;10.50;99.90
50013;DHT22;35901;48.694;9.476;2023-08-30T02:38:30;10.60;99.90
50013;DHT22;35901;48.694;9.476;2023-08-30T02:40:55;10.60;99.90
50013;DHT22;35901;48.694;9.476;2023-08-30T02:43:22;10.60;99.90
50013;DHT22;35901;48.694;9.476;2023-08-30T02:45:48;10.60;99.90
50013;DHT22;35901;48.694;9.476;2023-08-30T02:48:14;10.70;99.90
50013;DHT22;35901;48.694;9.476;2023-08-30T02:50:40;10.60;99.90
50013;DHT22;35901;48.694;9.476;2023-08-30T02:53:06;10.70;99.90
50013;DHT22;35901;48.694;9.476;2023-08-30T02:55:34;10.70;99.90
50013;DHT22;35901;48.694;9.476;2023-08-30T02:58:00;10.80;99.90
50013;DHT22;35901;48.694;9.476;2023-08-30T03:00:27;10.80;99.90
50013;DHT22;35901;48.694;9.476;2023-08-30T03:02:52;10.80;99.90
50013;DHT22;35901;48.694;9.476;2023-08-30T03:05:18;10.80;99.90
50013;DHT22;35901;48.694;9.476;2023-08-30T03:07:44;10.90;99.90
50013;DHT22;35901;48.694;9.476;2023-08-30T03:10:12;10.90;99.90
50013;DHT22;35901;48.694;9.476;2023-08-30T03:12:37;10.90;99.90
50013;DHT22;35901;48.694;9.476;2023-08-30T03:15:04;10.90;99.90
50013;DHT22;35901;48.694;9.476;2023-08-30T03:17:30;11.00;99.90
50013;DHT22;35901;48.694;9.476;2023-08-30T03:19:57;11.00;99.90
50013;DHT22;35901;48.694;9.476;2023-08-30T03:22:23;11.00;99.90
50013;DHT22;35901;48.694;9.476;2023-08-30T03:24:50;11.00;99.90
50013;DHT22;35901;48.694;9.476;2023-08-30T03:27:16;11.00;99.90
50013;DHT22;35901;48.694;9.476;2023-08-30T03:29:42;11.00;99.90
50013;DHT22;35901;48.694;9.476;2023-08-30T03:32:08;11.00;99.90
50013;DHT22;35901;48.694;9.476;2023-08-30T03:34:34;11.00;99.90
50013;DHT22;35901;48.694;9.476;2023-08-30T03:36:59;11.00;99.90
50013;DHT22;35901;48.694;9.476;2023-08-30T03:39:25;10.90;99.90
50013;DHT22;35901;48.694;9.476;2023-08-30T03:41:52;10.90;99.90
50013;DHT22;35901;48.694;9.476;2023-08-30T03:44:18;10.90;99.90
50013;DHT22;35901;48.694;9.476;2023-08-30T03:46:45;10.90;99.90
50013;DHT22;35901;48.694;9.476;2023-08-30T03:49:11;10.90;99.90
50013;DHT22;35901;48.694;9.476;2023-08-30T03:51:37;10.90;99.90
50013;DHT22;35901;48.694;9.476;2023-08-30T03:54:03;10.90;99.90
50013;DHT22;35901;48.694;9.476;2023-08-30T03:56:29;10.90;99.90
50013;DHT22;35901;48.694;9.476;2023-08-30T03:58:55;10.90;99.90
50013;DHT22;35901;48.694;9.476;2023-08-30T04:01:21;10.90;99.90
50013;DHT22;35901;48.694;9.476;2023-08-30T04:03:46;10.90;99.90
50013;DHT22;35901;48.694;9.476;2023-08-30T04:06:12;10.90;99.90
50013;DHT22;35901;48.694;9.476;2023-08-30T04:08:38;10.90;99.90
50013;DHT22;35901;48.694;9.476;2023-08-30T04:11:03;10.80;99.90
50013;DHT22;35901;48.694;9.476;2023-08-30T04:13:29;10.80;99.90
50013;DHT22;35901;48.694;9.476;2023-08-30T04:15:55;10.80;99.90
50013;DHT22;35901;48.694;9.476;2023-08-30T04:18:24;10.90;99.90
50013;DHT22;35901;48.694;9.476;2023-08-30T04:20:52;10.90;99.90
50013;DHT22;35901;48.694;9.476;2023-08-30T04:23:17;10.90;99.90
50013;DHT22;35901;48.694;9.476;2023-08-30T04:25:44;10.90;99.90
50013;DHT22;35901;48.694;9.476;2023-08-30T04:28:09;10.90;99.90
50013;DHT22;35901;48.694;9.476;2023-08-30T04:30:36;10.90;99.90
50013;DHT22;35901;48.694;9.476;2023-08-30T04:33:03;10.90;99.90
50013;DHT22;35901;48.694;9.476;2023-08-30T04:35:30;11.00;99.90
50013;DHT22;35901;48.694;9.476;2023-08-30T04:37:57;11.00;99.90
50013;DHT22;35901;48.694;9.476;2023-08-30T04:40:23;11.00;99.90
50013;DHT22;35901;48.694;9.476;2023-08-30T04:42:48;11.00;99.90
50013;DHT22;35901;48.694;9.476;2023-08-30T04:45:14;11.00;99.90
50013;DHT22;35901;48.694;9.476;2023-08-30T04:47:41;11.00;99.90
50013;DHT22;35901;48.694;9.476;2023-08-30T04:50:10;11.00;99.90
50013;DHT22;35901;48.694;9.476;2023-08-30T04:52:35;11.00;99.90
50013;DHT22;35901;48.694;9.476;2023-08-30T04:55:01;11.00;99.90
50013;DHT22;35901;48.694;9.476;2023-08-30T04:57:27;11.00;99.90
50013;DHT22;35901;48.694;9.476;2023-08-30T04:59:53;11.10;99.90
50013;DHT22;35901;48.694;9.476;2023-08-30T05:02:19;11.10;99.90
50013;DHT22;35901;48.694;9.476;2023-08-30T05:05:14;11.10;99.90
50013;DHT22;35901;48.694;9.476;2023-08-30T05:07:40;11.10;99.90
50013;DHT22;35901;48.694;9.476;2023-08-30T05:10:06;11.10;99.90
50013;DHT22;35901;48.694;9.476;2023-08-30T05:12:35;11.10;99.90
50013;DHT22;35901;48.694;9.476;2023-08-30T05:15:02;11.10;99.90
50013;DHT22;35901;48.694;9.476;2023-08-30T05:17:29;11.10;99.90
50013;DHT22;35901;48.694;9.476;2023-08-30T05:19:56;11.10;99.90
50013;DHT22;35901;48.694;9.476;2023-08-30T05:22:22;11.10;99.90
50013;DHT22;35901;48.694;9.476;2023-08-30T05:24:48;11.10;99.90
50013;DHT22;35901;48.694;9.476;2023-08-30T05:27:13;11.20;99.90
50013;DHT22;35901;48.694;9.476;2023-08-30T05:29:40;11.20;99.90
50013;DHT22;35901;48.694;9.476;2023-08-30T05:32:06;11.20;99.90
50013;DHT22;35901;48.694;9.476;2023-08-30T05:34:45;11.20;99.90
50013;DHT22;35901;48.694;9.476;2023-08-30T05:37:43;11.30;99.90
50013;DHT22;35901;48.694;9.476;2023-08-30T05:40:30;11.30;99.90
50013;DHT22;35901;48.694;9.476;2023-08-30T05:42:56;11.40;99.90
50013;DHT22;35901;48.694;9.476;2023-08-30T05:45:22;11.40;99.90
50013;DHT22;35901;48.694;9.476;2023-08-30T05:47:48;11.40;99.90
50013;DHT22;35901;48.694;9.476;2023-08-30T05:50:13;11.40;99.90
50013;DHT22;35901;48.694;9.476;2023-08-30T05:52:39;11.50;99.90
50013;DHT22;35901;48.694;9.476;2023-08-30T05:55:08;11.60;99.90
50013;DHT22;35901;48.694;9.476;2023-08-30T05:57:34;11.70;99.90
50013;DHT22;35901;48.694;9.476;2023-08-30T06:00:00;11.70;99.90
50013;DHT22;35901;48.694;9.476;2023-08-30T06:02:26;11.70;99.90
50013;DHT22;35901;48.694;9.476;2023-08-30T06:04:52;11.80;99.90
50013;DHT22;35901;48.694;9.476;2023-08-30T06:07:18;11.80;99.90
50013;DHT22;35901;48.694;9.476;2023-08-30T06:09:44;11.90;99.90
50013;DHT22;35901;48.694;9.476;2023-08-30T06:12:10;12.00;99.90
50013;DHT22;35901;48.694;9.476;2023-08-30T06:14:35;12.00;99.90
50013;DHT22;35901;48.694;9.476;2023-08-30T06:17:01;12.10;99.90
50013;DHT22;35901;48.694;9.476;2023-08-30T06:19:27;12.20;99.90
50013;DHT22;35901;48.694;9.476;2023-08-30T06:21:53;12.20;99.90
50013;DHT22;35901;48.694;9.476;2023-08-30T06:24:18;12.30;99.90
50013;DHT22;35901;48.694;9.476;2023-08-30T06:26:44;12.40;99.90
50013;DHT22;35901;48.694;9.476;2023-08-30T06:29:10;12.40;99.90
50013;DHT22;35901;48.694;9.476;2023-08-30T06:31:35;12.50;99.90
50013;DHT22;35901;48.694;9.476;2023-08-30T06:34:01;12.50;99.90
50013;DHT22;35901;48.694;9.476;2023-08-30T06:36:27;12.70;99.90
50013;DHT22;35901;48.694;9.476;2023-08-30T06:38:52;12.70;99.90
50013;DHT22;35901;48.694;9.476;2023-08-30T06:41:18;12.70;99.90
50013;DHT22;35901;48.694;9.476;2023-08-30T06:43:44;12.80;99.90
50013;DHT22;35901;48.694;9.476;2023-08-30T06:46:10;12.90;99.90
50013;DHT22;35901;48.694;9.476;2023-08-30T06:48:35;13.00;99.90
50013;DHT22;35901;48.694;9.476;2023-08-30T06:51:01;13.00;99.90
50013;DHT22;35901;48.694;9.476;2023-08-30T06:53:27;13.00;99.90
50013;DHT22;35901;48.694;9.476;2023-08-30T06:56:00;13.10;99.90
50013;DHT22;35901;48.694;9.476;2023-08-30T06:58:26;13.10;99.90
50013;DHT22;35901;48.694;9.476;2023-08-30T07:00:52;13.30;99.90
50013;DHT22;35901;48.694;9.476;2023-08-30T07:03:18;13.30;99.90
50013;DHT22;35901;48.694;9.476;2023-08-30T07:05:43;13.30;99.90
50013;DHT22;35901;48.694;9.476;2023-08-30T07:08:09;13.40;99.90
50013;DHT22;35901;48.694;9.476;2023-08-30T07:10:35;13.50;99.90
50013;DHT22;35901;48.694;9.476;2023-08-30T07:13:00;13.60;99.90
50013;DHT22;35901;48.694;9.476;2023-08-30T07:15:26;13.70;99.90
50013;DHT22;35901;48.694;9.476;2023-08-30T07:17:52;13.70;99.90
50013;DHT22;35901;48.694;9.476;2023-08-30T07:20:17;13.70;99.90
50013;DHT22;35901;48.694;9.476;2023-08-30T07:22:43;13.70;99.90
50013;DHT22;35901;48.694;9.476;2023-08-30T07:25:09;13.80;99.90
50013;DHT22;35901;48.694;9.476;2023-08-30T07:27:36;13.90;99.90
50013;DHT22;35901;48.694;9.476;2023-08-30T07:30:02;14.00;99.90
50013;DHT22;35901;48.694;9.476;2023-08-30T07:32:29;14.10;99.90
50013;DHT22;35901;48.694;9.476;2023-08-30T07:34:55;14.20;99.90
50013;DHT22;35901;48.694;9.476;2023-08-30T07:37:21;14.20;99.90
50013;DHT22;35901;48.694;9.476;2023-08-30T07:39:48;14.20;99.90
50013;DHT22;35901;48.694;9.476;2023-08-30T07:42:14;14.10;99.90
50013;DHT22;35901;48.694;9.476;2023-08-30T07:44:42;14.10;99.90
50013;DHT22;35901;48.694;9.476;2023-08-30T07:47:08;14.20;99.90
50013;DHT22;35901;48.694;9.476;2023-08-30T07:49:33;14.20;99.90
50013;DHT22;35901;48.694;9.476;2023-08-30T07:52:00;14.30;99.90
50013;DHT22;35901;48.694;9.476;2023-08-30T07:54:26;14.40;99.90
50013;DHT22;35901;48.694;9.476;2023-08-30T07:56:51;14.50;99.90
50013;DHT22;35901;48.694;9.476;2023-08-30T07:59:17;14.70;99.90
50013;DHT22;35901;48.694;9.476;2023-08-30T08:01:43;14.80;99.90
50013;DHT22;35901;48.694;9.476;2023-08-30T08:04:08;14.90;99.90
50013;DHT22;35901;48.694;9.476;2023-08-30T08:06:34;15.00;99.90
50013;DHT22;35901;48.694;9.476;2023-08-30T08:09:00;15.20;99.90
50013;DHT22;35901;48.694;9.476;2023-08-30T08:11:25;15.30;99.90
50013;DHT22;35901;48.694;9.476;2023-08-30T08:13:51;15.30;99.90
50013;DHT22;35901;48.694;9.476;2023-08-30T08:16:17;15.40;99.90
50013;DHT22;35901;48.694;9.476;2023-08-30T08:18:42;15.50;99.90
50013;DHT22;35901;48.694;9.476;2023-08-30T08:21:08;15.60;99.90
50013;DHT22;35901;48.694;9.476;2023-08-30T08:23:33;15.70;99.90
50013;DHT22;35901;48.694;9.476;2023-08-30T08:26:00;15.80;99.90
50013;DHT22;35901;48.694;9.476;2023-08-30T08:28:26;15.90;99.90
50013;DHT22;35901;48.694;9.476;2023-08-30T08:30:52;15.90;99.90
50013;DHT22;35901;48.694;9.476;2023-08-30T08:33:18;16.10;99.90
50013;DHT22;35901;48.694;9.476;2023-08-30T08:35:44;16.20;99.90
50013;DHT22;35901;48.694;9.476;2023-08-30T08:38:10;16.20;99.90
50013;DHT22;35901;48.694;9.476;2023-08-30T08:40:39;16.20;99.90
50013;DHT22;35901;48.694;9.476;2023-08-30T08:43:10;16.30;99.90
50013;DHT22;35901;48.694;9.476;2023-08-30T08:45:36;16.40;99.90
50013;DHT22;35901;48.694;9.476;2023-08-30T08:48:05;16.30;99.90
50013;DHT22;35901;48.694;9.476;2023-08-30T08:50:34;16.50;99.90
50013;DHT22;35901;48.694;9.476;2023-08-30T08:53:01;16.50;99.90
50013;DHT22;35901;48.694;9.476;2023-08-30T08:55:28;16.60;99.90
50013;DHT22;35901;48.694;9.476;2023-08-30T08:57:57;16.60;99.90
50013;DHT22;35901;48.694;9.476;2023-08-30T09:00:24;16.70;99.90
50013;DHT22;35901;48.694;9.476;2023-08-30T09:02:50;16.70;99.90
50013;DHT22;35901;48.694;9.476;2023-08-30T09:05:18;16.80;99.90
50013;DHT22;35901;48.694;9.476;2023-08-30T09:07:45;16.90;99.90
50013;DHT22;35901;48.694;9.476;2023-08-30T09:10:10;17.00;99.90
50013;DHT22;35901;48.694;9.476;2023-08-30T09:12:36;17.10;99.90
50013;DHT22;35901;48.694;9.476;2023-08-30T09:15:02;17.30;99.90
50013;DHT22;35901;48.694;9.476;2023-08-30T09:17:37;17.30;99.90
50013;DHT22;35901;48.694;9.476;2023-08-30T09:20:07;17.30;99.90
50013;DHT22;35901;48.694;9.476;2023-08-30T09:22:40;17.30;99.90
50013;DHT22;35901;48.694;9.476;2023-08-30T09:25:10;17.40;99.90
50013;DHT22;35901;48.694;9.476;2023-08-30T09:27:36;17.50;99.90
50013;DHT22;35901;48.694;9.476;2023-08-30T09:30:07;17.50;99.90
50013;DHT22;35901;48.694;9.476;2023-08-30T09:32:39;17.60;99.90
50013;DHT22;35901;48.694;9.476;2023-08-30T09:35:06;17.60;99.90
50013;DHT22;35901;48.694;9.476;2023-08-30T09:37:32;17.60;99.90
50013;DHT22;35901;48.694;9.476;2023-08-30T09:39:58;17.60;99.90
50013;DHT22;35901;48.694;9.476;2023-08-30T09:42:23;17.70;99.90
50013;DHT22;35901;48.694;9.476;2023-08-30T09:44:49;17.90;99.90
50013;DHT22;35901;48.694;9.476;2023-08-30T09:47:16;17.90;99.90
50013;DHT22;35901;48.694;9.476;2023-08-30T09:49:43;17.90;99.90
50013;DHT22;35901;48.694;9.476;2023-08-30T09:52:15;18.10;99.90
50013;DHT22;35901;48.694;9.476;2023-08-30T09:54:41;18.20;99.90
50013;DHT22;35901;48.694;9.476;2023-08-30T09:57:09;18.40;99.90
50013;DHT22;35901;48.694;9.476;2023-08-30T09:59:36;18.70;99.90
50013;DHT22;35901;48.694;9.476;2023-08-30T10:02:03;18.80;99.90
50013;DHT22;35901;48.694;9.476;2023-08-30T10:04:31;19.00;99.90
50013;DHT22;35901;48.694;9.476;2023-08-30T10:06:57;19.30;99.90
50013;DHT22;35901;48.694;9.476;2023-08-30T10:09:24;19.70;99.90
50013;DHT22;35901;48.694;9.476;2023-08-30T10:11:50;19.80;99.90
50013;DHT22;35901;48.694;9.476;2023-08-30T10:14:17;20.10;99.90
50013;DHT22;35901;48.694;9.476;2023-08-30T10:16:46;20.40;99.90
50013;DHT22;35901;48.694;9.476;2023-08-30T10:19:23;20.70;99.90
50013;DHT22;35901;48.694;9.476;2023-08-30T10:22:02;20.90;99.90
50013;DHT22;35901;48.694;9.476;2023-08-30T10:24:54;20.60;99.90
50013;DHT22;35901;48.694;9.476;2023-08-30T10:27:22;20.40;99.90
50013;DHT22;35901;48.694;9.476;2023-08-30T10:29:50;20.70;99.90
50013;DHT22;35901;48.694;9.476;2023-08-30T10:32:20;21.00;99.90
50013;DHT22;35901;48.694;9.476;2023-08-30T10:34:50;21.40;99.90
50013;DHT22;35901;48.694;9.476;2023-08-30T10:37:16;21.40;99.90
50013;DHT22;35901;48.694;9.476;2023-08-30T10:39:48;21.50;99.90
50013;DHT22;35901;48.694;9.476;2023-08-30T10:42:16;21.10;99.90
50013;DHT22;35901;48.694;9.476;2023-08-30T10:47:28;20.90;99.90
50013;DHT22;35901;48.694;9.476;2023-08-30T10:49:59;20.90;99.90
50013;DHT22;35901;48.694;9.476;2023-08-30T10:52:30;20.70;99.90
50013;DHT22;35901;48.694;9.476;2023-08-30T10:55:15;20.60;99.90
50013;DHT22;35901;48.694;9.476;2023-08-30T10:57:42;20.50;99.90
50013;DHT22;35901;48.694;9.476;2023-08-30T11:02:48;20.80;99.90
50013;DHT22;35901;48.694;9.476;2023-08-30T11:05:16;21.00;99.90
50013;DHT22;35901;48.694;9.476;2023-08-30T11:07:43;21.00;99.90
50013;DHT22;35901;48.694;9.476;2023-08-30T11:10:09;21.00;99.90
50013;DHT22;35901;48.694;9.476;2023-08-30T11:12:34;21.00;99.90
50013;DHT22;35901;48.694;9.476;2023-08-30T11:15:02;21.00;99.90
50013;DHT22;35901;48.694;9.476;2023-08-30T11:17:28;21.10;99.90
50013;DHT22;35901;48.694;9.476;2023-08-30T11:19:58;21.10;99.90
50013;DHT22;35901;48.694;9.476;2023-08-30T11:22:30;21.30;99.90
50013;DHT22;35901;48.694;9.476;2023-08-30T11:24:56;21.40;99.90
50013;DHT22;35901;48.694;9.476;2023-08-30T11:27:22;21.30;99.90
50013;DHT22;35901;48.694;9.476;2023-08-30T11:29:47;21.40;99.90
50013;DHT22;35901;48.694;9.476;2023-08-30T11:32:13;21.60;99.90
50013;DHT22;35901;48.694;9.476;2023-08-30T11:34:39;21.50;99.90
50013;DHT22;35901;48.694;9.476;2023-08-30T11:37:04;21.60;99.90
50013;DHT22;35901;48.694;9.476;2023-08-30T11:39:30;21.60;99.90
50013;DHT22;35901;48.694;9.476;2023-08-30T11:41:59;21.70;99.90
50013;DHT22;35901;48.694;9.476;2023-08-30T11:44:25;21.50;99.90
50013;DHT22;35901;48.694;9.476;2023-08-30T11:46:59;21.60;99.90
50013;DHT22;35901;48.694;9.476;2023-08-30T11:49:27;21.60;99.90
50013;DHT22;35901;48.694;9.476;2023-08-30T11:51:54;21.60;99.90
50013;DHT22;35901;48.694;9.476;2023-08-30T11:54:23;21.70;99.90
50013;DHT22;35901;48.694;9.476;2023-08-30T11:56:49;21.70;99.90
50013;DHT22;35901;48.694;9.476;2023-08-30T11:59:21;21.80;99.90
50013;DHT22;35901;48.694;9.476;2023-08-30T12:01:52;21.60;99.90
50013;DHT22;35901;48.694;9.476;2023-08-30T12:04:18;21.50;99.90
50013;DHT22;35901;48.694;9.476;2023-08-30T12:06:51;21.80;99.90
50013;DHT22;35901;48.694;9.476;2023-08-30T12:09:17;21.70;99.90
50013;DHT22;35901;48.694;9.476;2023-08-30T12:11:43;21.80;99.90
50013;DHT22;35901;48.694;9.476;2023-08-30T12:14:09;21.90;99.90
50013;DHT22;35901;48.694;9.476;2023-08-30T12:16:35;22.10;99.90
50013;DHT22;35901;48.694;9.476;2023-08-30T12:19:11;22.40;99.90
50013;DHT22;35901;48.694;9.476;2023-08-30T12:21:46;22.60;99.90
50013;DHT22;35901;48.694;9.476;2023-08-30T12:24:12;22.80;99.90
50013;DHT22;35901;48.694;9.476;2023-08-30T12:26:38;22.80;99.90
50013;DHT22;35901;48.694;9.476;2023-08-30T12:29:05;22.70;99.90
50013;DHT22;35901;48.694;9.476;2023-08-30T12:31:32;22.60;99.90
50013;DHT22;35901;48.694;9.476;2023-08-30T12:33:58;22.40;99.30
50013;DHT22;35901;48.694;9.476;2023-08-30T12:36:24;22.10;98.60
50013;DHT22;35901;48.694;9.476;2023-08-30T12:38:50;21.80;99.90
50013;DHT22;35901;48.694;9.476;2023-08-30T12:41:16;21.70;99.90
50013;DHT22;35901;48.694;9.476;2023-08-30T12:43:42;21.60;99.90
50013;DHT22;35901;48.694;9.476;2023-08-30T12:46:07;21.50;99.90
50013;DHT22;35901;48.694;9.476;2023-08-30T12:48:33;21.50;99.90
50013;DHT22;35901;48.694;9.476;2023-08-30T12:50:59;21.60;99.90
50013;DHT22;35901;48.694;9.476;2023-08-30T12:53:24;21.50;99.90
50013;DHT22;35901;48.694;9.476;2023-08-30T12:55:50;21.10;99.90
50013;DHT22;35901;48.694;9.476;2023-08-30T12:58:16;20.60;99.90
50013;DHT22;35901;48.694;9.476;2023-08-30T13:00:41;19.80;99.90
50013;DHT22;35901;48.694;9.476;2023-08-30T13:03:07;19.20;99.90
50013;DHT22;35901;48.694;9.476;2023-08-30T13:05:33;18.60;99.90
50013;DHT22;35901;48.694;9.476;2023-08-30T13:07:59;17.90;99.90
50013;DHT22;35901;48.694;9.476;2023-08-30T13:10:25;17.30;99.90
50013;DHT22;35901;48.694;9.476;2023-08-30T13:12:51;16.90;99.90
50013;DHT22;35901;48.694;9.476;2023-08-30T13:15:17;16.60;99.90
50013;DHT22;35901;48.694;9.476;2023-08-30T13:17:43;16.40;99.90
50013;DHT22;35901;48.694;9.476;2023-08-30T13:20:09;16.20;99.90
50013;DHT22;35901;48.694;9.476;2023-08-30T13:22:35;16.10;99.90
50013;DHT22;35901;48.694;9.476;2023-08-30T13:25:01;16.20;99.90
50013;DHT22;35901;48.694;9.476;2023-08-30T13:27:29;16.20;99.90
50013;DHT22;35901;48.694;9.476;2023-08-30T13:29:55;16.20;99.90
50013;DHT22;35901;48.694;9.476;2023-08-30T13:32:20;16.40;99.90
50013;DHT22;35901;48.694;9.476;2023-08-30T13:34:46;16.60;99.90
50013;DHT22;35901;48.694;9.476;2023-08-30T13:37:13;16.80;99.90
50013;DHT22;35901;48.694;9.476;2023-08-30T13:39:39;17.00;99.90
50013;DHT22;35901;48.694;9.476;2023-08-30T13:42:05;17.10;99.90
50013;DHT22;35901;48.694;9.476;2023-08-30T13:44:31;17.20;99.90
50013;DHT22;35901;48.694;9.476;2023-08-30T13:46:57;17.10;99.90
50013;DHT22;35901;48.694;9.476;2023-08-30T13:49:23;17.10;99.90
50013;DHT22;35901;48.694;9.476;2023-08-30T13:51:49;16.90;99.90
50013;DHT22;35901;48.694;9.476;2023-08-30T13:54:14;16.90;99.90
50013;DHT22;35901;48.694;9.476;2023-08-30T13:56:40;17.00;99.90
50013;DHT22;35901;48.694;9.476;2023-08-30T13:59:07;17.10;99.90
50013;DHT22;35901;48.694;9.476;2023-08-30T14:01:33;17.20;99.90
50013;DHT22;35901;48.694;9.476;2023-08-30T14:04:00;17.20;99.90
50013;DHT22;35901;48.694;9.476;2023-08-30T14:06:26;17.40;99.90
50013;DHT22;35901;48.694;9.476;2023-08-30T14:08:51;17.40;99.90
50013;DHT22;35901;48.694;9.476;2023-08-30T14:11:17;17.40;99.90
50013;DHT22;35901;48.694;9.476;2023-08-30T14:13:43;17.40;99.90
50013;DHT22;35901;48.694;9.476;2023-08-30T14:16:09;17.40;99.90
50013;DHT22;35901;48.694;9.476;2023-08-30T14:18:36;17.40;99.90
50013;DHT22;35901;48.694;9.476;2023-08-30T14:21:02;17.40;99.90
50013;DHT22;35901;48.694;9.476;2023-08-30T14:23:29;17.40;99.90
50013;DHT22;35901;48.694;9.476;2023-08-30T14:25:59;17.40;99.90
50013;DHT22;35901;48.694;9.476;2023-08-30T14:28:28;17.30;99.90
50013;DHT22;35901;48.694;9.476;2023-08-30T14:30:54;17.30;99.90
50013;DHT22;35901;48.694;9.476;2023-08-30T14:33:20;17.40;99.90
50013;DHT22;35901;48.694;9.476;2023-08-30T14:35:46;17.50;99.90
50013;DHT22;35901;48.694;9.476;2023-08-30T14:38:12;17.70;99.90
50013;DHT22;35901;48.694;9.476;2023-08-30T14:40:37;17.80;99.90
50013;DHT22;35901;48.694;9.476;2023-08-30T14:43:04;17.90;99.90
50013;DHT22;35901;48.694;9.476;2023-08-30T14:45:30;18.00;99.90
50013;DHT22;35901;48.694;9.476;2023-08-30T14:47:56;18.10;99.90
50013;DHT22;35901;48.694;9.476;2023-08-30T14:50:22;18.30;99.90
50013;DHT22;35901;48.694;9.476;2023-08-30T14:52:48;18.40;99.90
50013;DHT22;35901;48.694;9.476;2023-08-30T14:55:14;18.50;99.90
50013;DHT22;35901;48.694;9.476;2023-08-30T14:57:40;18.60;99.90
50013;DHT22;35901;48.694;9.476;2023-08-30T15:00:06;18.60;99.90
50013;DHT22;35901;48.694;9.476;2023-08-30T15:02:33;18.70;99.90
50013;DHT22;35901;48.694;9.476;2023-08-30T15:04:58;18.80;99.90
50013;DHT22;35901;48.694;9.476;2023-08-30T15:07:24;19.00;99.90
50013;DHT22;35901;48.694;9.476;2023-08-30T15:09:50;19.00;99.90
50013;DHT22;35901;48.694;9.476;2023-08-30T15:12:16;19.00;99.90
50013;DHT22;35901;48.694;9.476;2023-08-30T15:14:41;19.10;99.90
50013;DHT22;35901;48.694;9.476;2023-08-30T15:17:09;19.00;99.90
50013;DHT22;35901;48.694;9.476;2023-08-30T15:19:35;18.90;99.90
50013;DHT22;35901;48.694;9.476;2023-08-30T15:22:02;18.70;99.90
50013;DHT22;35901;48.694;9.476;2023-08-30T15:24:30;18.50;99.90
50013;DHT22;35901;48.694;9.476;2023-08-30T15:26:56;18.40;99.90
50013;DHT22;35901;48.694;9.476;2023-08-30T15:29:22;18.30;99.90
50013;DHT22;35901;48.694;9.476;2023-08-30T15:31:47;18.20;99.90
50013;DHT22;35901;48.694;9.476;2023-08-30T15:34:20;18.20;99.90
50013;DHT22;35901;48.694;9.476;2023-08-30T15:36:46;18.10;99.90
50013;DHT22;35901;48.694;9.476;2023-08-30T15:39:15;18.20;99.90